Huntertown, Indiana
Current Conditions -  °F | °C
As of 6:55 PM on Thursday 27 Nov 2014 (Local Time) from KGWB Reporting Station
Light Snow Light Snow  
Wind Chill: 18°   Ceiling: 1400
Heat Index: 28°   Visibility: 10mi
Dew Point: 25°   Wind: 12mph
Humidity: 86%   Direction: 290°WNW
Pressure: 30.31"   Gusts: 21mph
Location:  41.23°N, 85.17°W
Report Text: KGWB 272355Z AUTO 29010G18KT 245V305 10SM -SN BKN014 BKN018 OVC027 M02/M04 A3031 RMK AO2
Loading
Personal Weather Stations






























Interactive Weather Map New forecast layout! Learn more

10-Day Weather Forecast

Advertisements
Track Severe Weather on mobile